ADDS METAR Data INFO
IDs: Format: Raw Decoded Include TAF

Data at: 0346 UTC 20 Feb 2018

KAAT 200325Z AUTO 00000KT 10SM BKN023 BKN034 OVC042 M06/M08 A2995 RMK AO2 T10611083
KAAT 200314Z AUTO 20003KT 10SM SCT023 BKN034 OVC042 M06/M08 A2995 RMK AO2 T10611078
KAAT 200255Z AUTO 00000KT 9SM BKN024 OVC031 M06/M08 A2994 RMK AO2 SNE54 SLP178 P0002 60003 T10611078 51014
KAAT 200246Z AUTO 00000KT 3SM -SN BR FEW020 BKN031 OVC041 M06/M08 A2994 RMK AO2 P0002 T10561078
KAAT 200234Z AUTO 00000KT 2 1/2SM -SN BR BKN019 BKN030 OVC041 M06/M08 A2994 RMK AO2 P0002 T10561078
KAAT 200222Z AUTO 00000KT 2SM -SN BR BKN014 BKN033 OVC044 M06/M07 A2993 RMK AO2 P0002 T10561072
KAAT 200211Z AUTO 36004KT 1/2SM SN FZFG BKN010 OVC014 M06/M07 A2993 RMK AO2 P0001 T10561072
KAAT 200203Z AUTO 35007KT 1SM -SN BR BKN012 BKN025 OVC034 M06/M08 A2993 RMK AO2 P0000 T10561078
KAAT 200155Z AUTO 35005KT 1SM -SN BR BKN016 BKN026 OVC036 M06/M08 A2993 RMK AO2 SNB44 SLP173 P0001 T10561078
KAAT 200149Z AUTO 32006KT 1 1/2SM -SN FEW012 BKN033 OVC050 M05/M08 A2992 RMK AO2 SNB44 P0000
KAAT 200055Z AUTO 02004KT 10SM SCT080 M04/M13 A2990 RMK AO2 SLP159 T10391133
KAAT 192355Z AUTO 35011KT 10SM FEW055 OVC075 M03/M13 A2989 RMK AO2 SLP154 60000 T10281128 11017 21044 53009
KAAT 192255Z AUTO 32010KT 10SM FEW047 OVC070 M02/M13 A2988 RMK AO2 SNE01 SLP146 P0000 T10171128
KAAT 192155Z AUTO 03006KT 10SM -SN FEW048 OVC070 M02/M11 A2986 RMK AO2 SNB52 SLP144 P0000 T10221111
KAAT 192055Z AUTO 03008KT 10SM OVC065 M03/M11 A2986 RMK AO2 SNE02B14E26 SLP140 P0000 60000 T10281106 51006
KAAT 192002Z AUTO 07007KT 9SM FEW019 SCT037 OVC050 M04/M10 A2986 RMK AO2 SNE02 P0000 T10391100
KAAT 191955Z AUTO 06004KT 2 1/2SM -SN FEW016 BKN039 OVC055 M03/M08 A2986 RMK AO2 SNB00E10B33 SLP140 P0000 T10331083
KAAT 191945Z AUTO 04008KT 1 1/2SM -SN FEW019 BKN036 OVC070 M04/M09 A2986 RMK AO2 SNB00E10B33 P0000 T10441089
KAAT 191855Z AUTO 01009G15KT 10SM BKN050 BKN065 M02/M11 A2985 RMK AO2 SLP136 T10221106
KAAT 191755Z AUTO 35008KT 10SM FEW070 M04/M12 A2984 RMK AO2 SNE25 SLP134 P0000 60001 T10441117 11044 21100 51012
KAAT 191735Z AUTO 35008KT 10SM SCT036 SCT047 BKN065 M06/M11 A2983 RMK AO2 SNE25 P0000 T10561111
KAAT 191712Z AUTO 35011G18KT 3SM -SN BKN029 OVC044 M06/M10 A2982 RMK AO2 P0000 T10611100
KAAT 191708Z AUTO 35013G18KT 1 1/2SM -SN BKN027 OVC044 M06/M09 A2982 RMK AO2 P0000 T10611094
KAAT 191701Z AUTO 34013KT 2SM -SN BKN029 OVC040 M06/M09 A2982 RMK AO2 P0000 T10611094
KAAT 191655Z AUTO 35012G20KT 4SM -SN BKN035 OVC044 M06/M10 A2982 RMK AO2 SLP129 P0001 T10611100
KAAT 191653Z AUTO 35011G20KT 4SM -SN BKN035 OVC045 M06/M10 A2982 RMK AO2 P0001
KAAT 191644Z AUTO 33011KT 4SM -SN BKN029 OVC038 M06/M09 A2982 RMK AO2 P0001 T10611094
KAAT 191634Z AUTO 34014G18KT 2 1/2SM -SN BKN023 OVC036 M06/M09 A2981 RMK AO2 P0001 T10611094
KAAT 191555Z AUTO 26003KT 1 3/4SM -SN BR OVC019 M07/M09 A2980 RMK AO2 SNB13 SLP122 P0000 T10671089
KAAT 191548Z AUTO 27003KT 1 3/4SM -SN BR OVC019 M07/M08 A2979 RMK AO2 SNB13 P0000 T10721083
KAAT 191541Z AUTO 28003KT 3/4SM -SN BR VV018 M07/M09 A2979 RMK AO2 SNB13 P0000 T10721089
KAAT 191524Z AUTO 25004KT 1 1/4SM -SN BR BKN027 OVC048 M08/M10 A2978 RMK AO2 SNB13 P0000 T10781100
KAAT 191517Z AUTO 00000KT 2SM -SN BR BKN029 OVC050 M08/M10 A2978 RMK AO2 SNB13 P0000 T10781100
KAAT 191455Z AUTO 00000KT 10SM OVC055 M09/M11 A2977 RMK AO2 SLP117 T10891111 53016
KAAT 191355Z AUTO 24003KT 10SM FEW060 SCT120 M09/M12 A2974 RMK AO2 SLP105 T10941117
KAAT 191255Z AUTO 31003KT 10SM SCT043 BKN050 OVC065 M08/M11 A2973 RMK AO2 SLP095 T10831111
KAAT 191155Z AUTO 27008KT 10SM CLR M09/M12 A2972 RMK AO2 SLP090 60005 70005 T10891117 11056 21089 50008
KAAT 191055Z AUTO 29007KT 10SM FEW023 BKN045 OVC080 M08/M11 A2972 RMK AO2 SLP085 T10781106
KAAT 190955Z AUTO 31006KT 10SM FEW040 BKN047 BKN080 M08/M10 A2970 RMK AO2 SNE22 SLP084 P0000 T10781100
KAAT 190855Z AUTO 26006KT 6SM -SN BR BKN046 BKN055 OVC070 M07/M08 A2969 RMK AO2 SNE38B49 SLP075 P0002 60005 T10671083 53000
KAAT 190850Z AUTO 26006KT 7SM -SN BKN042 BKN055 OVC070 M07/M08 A2969 RMK AO2 SNE38B49 P0002
KAAT 190839Z AUTO 26004KT 9SM BKN020 OVC070 M07/M08 A2969 RMK AO2 SNE38 P0002 T10671078
KAAT 190832Z AUTO 27004KT 2SM -SN BR BKN027 OVC070 M06/M08 A2969 RMK AO2 P0002 T10611078
KAAT 190824Z AUTO 30006KT 1/2SM SN FZFG VV017 M06/M08 A2969 RMK AO2 P0001 T10611078
KAAT 190814Z AUTO 30009KT 1 3/4SM -SN BR OVC024 M06/M08 A2970 RMK AO2 P0000 T10611083
KAAT 190809Z AUTO 30005KT 3SM -SN BR OVC029 M06/M08 A2969 RMK AO2 P0000 T10611078
KAAT 190755Z AUTO 25004KT 1 3/4SM -SN BR OVC015 M06/M07 A2969 RMK AO2 SLP075 P0002 T10611072 400501067
KAAT 190751Z AUTO 22005KT 1 1/4SM -SN BR OVC015 M06/M07 A2968 RMK AO2 P0002
KAAT 190736Z AUTO 23003KT 1/2SM SN FZFG VV012 M06/M07 A2968 RMK AO2 P0001 T10611072
KAAT 190722Z AUTO 25004KT 1 1/4SM -SN BR OVC024 M06/M08 A2969 RMK AO2 P0000 T10611078
KAAT 190713Z AUTO 00000KT 1 3/4SM -SN BR OVC030 M06/M08 A2969 RMK AO2 P0000 T10611078
KAAT 190655Z AUTO 00000KT 5SM -SN BR OVC043 M06/M08 A2969 RMK AO2 SNB08 SLP076 P0001 T10561078
KAAT 190642Z AUTO 23003KT 4SM -SN BR BKN043 OVC065 M06/M08 A2968 RMK AO2 SNB08 P0001 T10611078
KAAT 190635Z AUTO 27003KT 1 1/2SM -SN BR OVC030 M06/M08 A2969 RMK AO2 SNB08 P0000 T10611078
KAAT 190631Z AUTO 00000KT 2SM -SN OVC027 M06/M08 A2969 RMK AO2 SNB08 P0000 T10561083
KAAT 190622Z AUTO 28003KT 3SM -SN OVC036 M06/M08 A2969 RMK AO2 SNB08 P0000 T10561083
KAAT 190613Z AUTO 31005KT 1 3/4SM -SN BKN032 OVC070 M06/M09 A2969 RMK AO2 SNB08 P0000 T10561089
KAAT 190555Z AUTO 00000KT 10SM BKN070 OVC080 M06/M09 A2969 RMK AO2 SLP076 60000 T10561094 10000 21067 53004
KAAT 190455Z AUTO 31007KT 10SM SCT060 M06/M10 A2968 RMK AO2 SLP067 T10561100
KAAT 190355Z AUTO 31005KT 10SM FEW060 BKN090 M05/M09 A2969 RMK AO2 SLP070 T10501089
KAAT 190255Z AUTO 31017KT 10SM FEW007 FEW110 M04/M08 A2968 RMK AO2 SNB25E40 SLP069 P0000 60000 T10441083 53006
KAAT 190241Z AUTO 31012G19KT 9SM FEW009 M04/M08 A2968 RMK AO2 SNB25E40 P0000 T10391083
KAAT 190155Z AUTO 30010G19KT 10SM FEW055 FEW090 BKN120 M03/M11 A2966 RMK AO2 SLP059 T10281106
KAAT 190055Z AUTO 30020G25KT 10SM FEW065 OVC090 M01/M09 A2965 RMK AO2 PK WND 32029/0011 SLP051 T10111094
KAAT 182355Z AUTO 32019G29KT 10SM FEW030 FEW075 M01/M11 A2966 RMK AO2 PK WND 33029/2350 SLP049 60000 T10061111 10022 21017 58004
KAAT 182255Z AUTO 31015G21KT 10SM FEW046 BKN090 BKN120 02/M07 A2966 RMK AO2 PK WND 30029/2210 SLP044 T00221067
KAAT 182155Z AUTO 31020G25KT 10SM FEW035 SCT044 OVC075 M01/M07 A2968 RMK AO2 PK WND 33028/2115 SNB29E47 SLP056 P0000 T10061072
KAAT 182055Z AUTO 33017G26KT 10SM SCT080 01/M08 A2967 RMK AO2 PK WND 32035/2010 SNE25 SLP054 P0000 60000 T00061083 58012
KAAT 181955Z AUTO 32020G29KT 4SM -SN SCT014 BKN065 BKN085 M01/M06 A2970 RMK AO2 PK WND 30031/1922 SNE04B40 SLP061 P0000 T10061056
KAAT 181947Z AUTO 32023G30KT 1 3/4SM -SN BKN017 BKN060 BKN070 M01/M06 A2970 RMK AO2 PK WND 30031/1922 VIS 3/4V5 SNE04B40 P0000 T10111056
KAAT 181904Z AUTO 33016G25KT 7SM FEW033 SCT049 BKN075 00/M04 A2970 RMK AO2 SNE04 P0000 T00001044
KAAT 181855Z AUTO 32021G25KT 2SM -SN SCT034 BKN046 OVC075 M01/M04 A2971 RMK AO2 PK WND 32030/1832 WSHFT 1744 SLP063 P0000 T10111044
KAAT 181840Z AUTO 31019G30KT 2 1/2SM -SN SCT041 SCT055 OVC075 M01/M05 A2971 RMK AO2 PK WND 32030/1832 WSHFT 1744 P0000 T10111050
KAAT 181812Z AUTO 32019G23KT 4SM -SN SCT049 OVC070 00/M04 A2971 RMK AO2 WSHFT 1744 P0000 T00001039
KAAT 181758Z AUTO 32016G34KT 2SM -SN BKN047 BKN055 OVC085 M02/M05 A2971 RMK AO2 WSHFT 1744 P0000 T10171050
KAAT 181755Z AUTO 32020G34KT 3SM -SN SCT047 BKN055 OVC085 00/M07 A2971 RMK AO2 PK WND 32034/1752 SNB53 SLP063 P0000 60000 T00001067 10033 21006 58002
KAAT 181655Z AUTO 25017G27KT 10SM FEW031 SCT055 BKN085 03/M05 A2971 RMK AO2 PK WND 23027/1650 SLP060 T00281050
KAAT 181555Z AUTO 26013KT 10SM FEW060 SCT090 02/M03 A2973 RMK AO2 SLP066 T00171033